createdAt,value
2017-07-22T00:00:49.800Z,90.45
2017-07-22T00:02:00.065Z,90.25
2017-07-22T00:03:09.713Z,90.16
2017-07-22T00:04:19.979Z,90.45
2017-07-22T00:05:30.251Z,89.97
2017-07-22T00:06:40.520Z,90.16
2017-07-22T00:07:50.786Z,90.06
2017-07-22T00:09:01.054Z,90.16
2017-07-22T00:10:11.012Z,90.54
2017-07-22T00:11:21.285Z,90.16
2017-07-22T00:12:31.559Z,90.45
2017-07-22T00:13:41.826Z,90.83
2017-07-22T00:14:51.777Z,90.35
2017-07-22T00:16:05.515Z,90.35
2017-07-22T00:17:15.472Z,90.06
2017-07-22T00:18:25.742Z,90.06
2017-07-22T00:19:35.391Z,90.06
2017-07-22T00:20:45.657Z,90.06
2017-07-22T00:21:55.613Z,90.35
2017-07-22T00:23:05.570Z,90.92
2017-07-22T00:24:15.848Z,90.92
2017-07-22T00:25:26.148Z,90.73
2017-07-22T00:26:36.425Z,91.3
2017-07-22T00:27:46.696Z,91.02
2017-07-22T00:28:56.967Z,91.21
2017-07-22T00:30:07.239Z,91.02
2017-07-22T00:31:17.197Z,91.4
2017-07-22T00:32:27.464Z,91.78
2017-07-22T00:33:37.105Z,91.97
2017-07-22T00:34:47.374Z,91.78
2017-07-22T00:35:57.640Z,91.3
2017-07-22T00:37:07.614Z,91.78
2017-07-22T00:38:17.882Z,91.69
2017-07-22T00:39:28.215Z,91.5
2017-07-22T00:40:38.485Z,91.02
2017-07-22T00:41:48.753Z,90.83
2017-07-22T00:42:59.026Z,90.83
2017-07-22T00:44:09.308Z,91.69
2017-07-22T00:45:19.615Z,91.78
2017-07-22T00:46:29.902Z,91.3
2017-07-22T00:47:40.192Z,90.83
2017-07-22T00:48:50.458Z,90.64
2017-07-22T00:50:00.411Z,90.54
2017-07-22T00:51:10.374Z,90.45
2017-07-22T00:52:20.326Z,89.97
2017-07-22T00:53:30.595Z,89.97
2017-07-22T00:54:40.546Z,89.78
2017-07-22T00:55:50.811Z,89.68
2017-07-22T00:57:01.088Z,89.87
2017-07-22T00:58:11.044Z,90.16
2017-07-22T00:59:21.310Z,90.06
2017-07-22T01:00:31.580Z,90.45
2017-07-22T01:01:41.534Z,90.92
2017-07-22T01:02:51.494Z,91.02
2017-07-22T01:04:01.767Z,91.4
2017-07-22T01:05:11.723Z,91.3
2017-07-22T01:06:21.997Z,91.59
2017-07-22T01:07:32.264Z,91.59
2017-07-22T01:08:42.536Z,91.97
2017-07-22T01:09:52.797Z,91.3
2017-07-22T01:11:03.074Z,90.83
2017-07-22T01:12:13.341Z,91.11
2017-07-22T01:13:23.302Z,90.83
2017-07-22T01:14:33.268Z,90.83
2017-07-22T01:15:43.537Z,90.64
2017-07-22T01:16:53.807Z,90.73
2017-07-22T01:18:04.074Z,90.64
2017-07-22T01:19:14.027Z,90.83
2017-07-22T01:20:24.324Z,90.83
2017-07-22T01:21:34.595Z,91.02
2017-07-22T01:22:44.873Z,91.02
2017-07-22T01:23:54.828Z,90.73
2017-07-22T01:25:05.099Z,90.25
2017-07-22T01:26:15.365Z,90.25
2017-07-22T01:27:25.638Z,89.78
2017-07-22T01:28:35.594Z,90.16
2017-07-22T01:29:45.864Z,89.78
2017-07-22T01:30:55.823Z,89.2
2017-07-22T01:32:06.097Z,89.01
2017-07-22T01:33:16.051Z,89.53
2017-07-22T01:34:26.005Z,89.2
2017-07-22T01:35:36.275Z,89.53
2017-07-22T01:36:46.227Z,89.97
2017-07-22T01:37:56.498Z,89.92
2017-07-22T01:39:06.770Z,89.87
2017-07-22T01:40:17.037Z,89.97
2017-07-22T01:41:27.307Z,90.16
2017-07-22T01:42:37.580Z,90.35
2017-07-22T01:43:47.848Z,90.64
2017-07-22T01:44:58.121Z,90.83
2017-07-22T01:46:08.397Z,90.45
2017-07-22T01:47:18.667Z,90.06
2017-07-22T01:48:28.623Z,89.49
2017-07-22T01:49:38.892Z,89.44
2017-07-22T01:50:49.164Z,89.49
2017-07-22T01:51:59.454Z,89.49
2017-07-22T01:53:09.722Z,89.49
2017-07-22T01:54:19.993Z,89.97
2017-07-22T01:55:30.255Z,89.59
2017-07-22T01:56:40.205Z,89.39
2017-07-22T01:57:50.161Z,89.68
2017-07-22T01:59:00.422Z,89.01
2017-07-22T02:00:10.377Z,89.25
2017-07-22T02:01:20.328Z,89.59
2017-07-22T02:02:30.591Z,89.87
2017-07-22T02:03:40.860Z,90.16
2017-07-22T02:04:51.129Z,89.87
2017-07-22T02:06:01.392Z,89.87
2017-07-22T02:07:11.664Z,89.68
2017-07-22T02:08:21.622Z,89.78
2017-07-22T02:09:31.898Z,90.45
2017-07-22T02:10:42.173Z,90.45
2017-07-22T02:11:51.818Z,90.16
2017-07-22T02:13:02.087Z,89.39
2017-07-22T02:14:12.356Z,89.68
2017-07-22T02:15:22.644Z,89.01
2017-07-22T02:16:32.601Z,89.01
2017-07-22T02:17:42.553Z,89.39
2017-07-22T02:18:52.820Z,89.39
2017-07-22T02:20:03.094Z,89.2
2017-07-22T02:21:13.087Z,89.3
2017-07-22T02:22:23.379Z,89.39
2017-07-22T02:23:33.333Z,89.49
2017-07-22T02:24:43.293Z,89.2
2017-07-22T02:25:53.560Z,89.2
2017-07-22T02:27:03.829Z,89.3
2017-07-22T02:28:14.101Z,89.11
2017-07-22T02:29:24.073Z,89.3
2017-07-22T02:30:34.346Z,89.68
2017-07-22T02:31:44.303Z,90.16
2017-07-22T02:32:54.269Z,90.16
2017-07-22T02:34:04.545Z,89.92
2017-07-22T02:35:14.826Z,90.16
2017-07-22T02:36:24.789Z,90.3
2017-07-22T02:37:35.132Z,89.92
2017-07-22T02:38:44.777Z,90.2
2017-07-22T02:39:55.050Z,90.3
2017-07-22T02:41:05.324Z,90.3
2017-07-22T02:42:15.603Z,89.44
2017-07-22T02:43:25.884Z,90.01
2017-07-22T02:44:36.157Z,90.2
2017-07-22T02:45:46.120Z,89.82
2017-07-22T02:46:56.386Z,90.78
2017-07-22T02:48:06.343Z,90.68
2017-07-22T02:49:16.619Z,90.68
2017-07-22T02:50:26.903Z,91.54
2017-07-22T02:51:37.182Z,92.21
2017-07-22T02:52:47.140Z,91.74
2017-07-22T02:53:57.411Z,91.93
2017-07-22T02:55:07.682Z,91.4
2017-07-22T02:56:17.958Z,91.5
2017-07-22T02:57:28.239Z,91.69
2017-07-22T02:58:38.509Z,91.97
2017-07-22T02:59:48.147Z,91.59
2017-07-22T03:00:58.417Z,91.21
2017-07-22T03:02:08.690Z,90.54
2017-07-22T03:03:18.964Z,90.83
2017-07-22T03:04:29.235Z,90.73
2017-07-22T03:05:39.508Z,90.83
2017-07-22T03:06:49.777Z,90.73
2017-07-22T03:08:00.060Z,90.16
2017-07-22T03:09:10.336Z,90.06
2017-07-22T03:10:20.610Z,90.16
2017-07-22T03:11:30.884Z,90.16
2017-07-22T03:12:41.149Z,90.06
2017-07-22T03:13:51.419Z,89.97
2017-07-22T03:15:01.694Z,90.25
2017-07-22T03:16:11.968Z,90.25
2017-07-22T03:17:22.254Z,90.83
2017-07-22T03:18:32.528Z,91.3
2017-07-22T03:19:42.790Z,91.78
2017-07-22T03:20:52.755Z,91.4
2017-07-22T03:22:03.022Z,91.4
2017-07-22T03:23:13.294Z,91.78
2017-07-22T03:24:23.559Z,91.21
2017-07-22T03:25:33.832Z,91.4
2017-07-22T03:26:43.797Z,92.36
2017-07-22T03:27:53.753Z,93.02
2017-07-22T03:29:04.032Z,93.41
2017-07-22T03:30:14.302Z,93.6
2017-07-22T03:31:24.587Z,93.79
2017-07-22T03:32:34.856Z,93.6
2017-07-22T03:33:45.138Z,93.21
2017-07-22T03:34:55.411Z,94.74
2017-07-22T03:36:05.685Z,95.12
2017-07-22T03:37:15.638Z,95.41
2017-07-22T03:38:25.916Z,95.51
2017-07-22T03:39:36.184Z,96.08
2017-07-22T03:40:46.452Z,96.56
2017-07-22T03:41:56.721Z,96.66
2017-07-22T03:43:06.682Z,96.94
2017-07-22T03:44:16.657Z,97.32
2017-07-22T03:45:26.928Z,98.08
2017-07-22T03:46:37.194Z,98.18
2017-07-22T03:47:47.468Z,98.18
2017-07-22T03:48:57.419Z,98.42
2017-07-22T03:50:07.705Z,98.37
2017-07-22T03:51:17.656Z,98.28
2017-07-22T03:52:27.924Z,98.85
2017-07-22T03:53:38.235Z,98.57
2017-07-22T03:54:48.190Z,98.85
2017-07-22T03:55:58.465Z,97.89
2017-07-22T03:57:08.735Z,97.32
2017-07-22T03:58:19.002Z,97.13
2017-07-22T03:59:29.267Z,97.42
2017-07-22T04:00:39.535Z,97.13
2017-07-22T04:01:49.191Z,97.42
2017-07-22T04:02:59.465Z,97.89
2017-07-22T04:04:09.742Z,98.18
2017-07-22T04:05:19.696Z,98.08
2017-07-22T04:06:29.970Z,97.03
2017-07-22T04:07:40.233Z,97.42
2017-07-22T04:08:50.188Z,97.66
2017-07-22T04:10:00.142Z,96.46
2017-07-22T04:11:10.109Z,96.13
2017-07-22T04:12:20.374Z,96.17
2017-07-22T04:13:30.327Z,96.08
2017-07-22T04:14:40.599Z,96.46
2017-07-22T04:15:50.863Z,96.27
2017-07-22T04:17:00.500Z,96.42
2017-07-22T04:18:10.778Z,96.42
2017-07-22T04:19:21.045Z,96.42
2017-07-22T04:20:31.314Z,96.7
2017-07-22T04:21:41.583Z,96.03
2017-07-22T04:22:51.869Z,95.75
2017-07-22T04:24:02.143Z,95.65
2017-07-22T04:25:12.102Z,96.03
2017-07-22T04:26:22.377Z,94.98
2017-07-22T04:27:32.650Z,94.98
2017-07-22T04:28:42.918Z,95.65
2017-07-22T04:29:53.189Z,95.27
2017-07-22T04:31:03.458Z,94.98
2017-07-22T04:32:13.733Z,95.46
2017-07-22T04:33:24.014Z,95.27
2017-07-22T04:34:34.293Z,95.07
2017-07-22T04:35:44.254Z,94.41
2017-07-22T04:36:54.513Z,94.89
2017-07-22T04:38:04.785Z,95.46
2017-07-22T04:39:15.068Z,97.56
2017-07-22T04:40:25.022Z,96.8
2017-07-22T04:41:34.983Z,96.42
2017-07-22T04:42:45.253Z,96.03
2017-07-22T04:43:55.208Z,95.46
2017-07-22T04:45:05.480Z,94.89
2017-07-22T04:46:15.438Z,94.89
2017-07-22T04:47:25.705Z,94.79
2017-07-22T04:48:35.668Z,94.22
2017-07-22T04:49:45.935Z,94.7
2017-07-22T04:50:56.210Z,94.22
2017-07-22T04:52:06.483Z,93.84
2017-07-22T04:53:16.750Z,94.31
2017-07-22T04:54:26.708Z,93.74
2017-07-22T04:55:36.971Z,94.02
2017-07-22T04:56:47.270Z,93.88
2017-07-22T04:57:57.563Z,93.79
2017-07-22T04:59:07.834Z,94.26
2017-07-22T05:00:18.102Z,93.69
2017-07-22T05:01:28.375Z,94.02
2017-07-22T05:02:38.642Z,93.98
2017-07-22T05:03:48.911Z,94.17
2017-07-22T05:04:59.176Z,92.97
2017-07-22T05:06:09.459Z,92.59
2017-07-22T05:07:19.733Z,92.4
2017-07-22T05:08:29.686Z,92.54
2017-07-22T05:09:39.641Z,92.74
2017-07-22T05:10:49.916Z,92.64
2017-07-22T05:12:00.185Z,92.16
2017-07-22T05:13:10.459Z,91.97
2017-07-22T05:14:20.734Z,92.07
2017-07-22T05:15:31.005Z,91.68
2017-07-22T05:16:41.272Z,91.97
2017-07-22T05:17:51.233Z,91.39
2017-07-22T05:19:01.504Z,91.2
2017-07-22T05:20:11.778Z,91.39
2017-07-22T05:21:22.057Z,91.39
2017-07-22T05:22:32.328Z,91.2
2017-07-22T05:23:42.599Z,90.92
2017-07-22T05:24:52.559Z,91.59
2017-07-22T05:26:02.512Z,90.73
2017-07-22T05:27:12.470Z,91.11
2017-07-22T05:28:22.425Z,91.59
2017-07-22T05:29:32.708Z,91.49
2017-07-22T05:30:42.666Z,91.68
2017-07-22T05:31:52.942Z,91.3
2017-07-22T05:33:02.901Z,91.06
2017-07-22T05:34:13.175Z,90.77
2017-07-22T05:35:23.452Z,90.63
2017-07-22T05:36:33.721Z,90.48
2017-07-22T05:37:43.998Z,91.06
2017-07-22T05:38:54.275Z,90.73
2017-07-22T05:40:04.557Z,90.3
2017-07-22T05:41:14.830Z,90.53
2017-07-22T05:42:24.786Z,90.39
2017-07-22T05:43:35.059Z,90.01
2017-07-22T05:44:45.358Z,90.2
2017-07-22T05:45:55.629Z,90.39
2017-07-22T05:47:05.591Z,89.91
2017-07-22T05:48:15.860Z,90.2
2017-07-22T05:49:26.126Z,89.81
2017-07-22T05:50:36.396Z,90.01
2017-07-22T05:51:46.678Z,90.1
2017-07-22T05:52:56.637Z,90.01
2017-07-22T05:54:06.916Z,89.24
2017-07-22T05:55:17.184Z,89.72
2017-07-22T05:56:27.141Z,89.53
2017-07-22T05:57:37.419Z,89.43
2017-07-22T05:58:47.694Z,89.43
2017-07-22T05:59:57.963Z,89.43
2017-07-22T06:01:07.920Z,89.34
2017-07-22T06:02:18.194Z,88.95
2017-07-22T06:03:28.144Z,88.57
2017-07-22T06:04:38.098Z,89.15
2017-07-22T06:05:48.371Z,89.43
2017-07-22T06:06:58.342Z,89.43
2017-07-22T06:08:08.614Z,89.43
2017-07-22T06:09:18.885Z,89.53
2017-07-22T06:10:29.160Z,89.43
2017-07-22T06:11:39.430Z,89.62
2017-07-22T06:12:49.386Z,88.86
2017-07-22T06:13:59.343Z,89.15
2017-07-22T06:15:09.617Z,90.3
2017-07-22T06:16:19.887Z,89.81
2017-07-22T06:17:29.852Z,90.2
2017-07-22T06:18:39.809Z,90.58
2017-07-22T06:19:50.097Z,90.82
2017-07-22T06:21:00.394Z,91.06
2017-07-22T06:22:10.666Z,90.1
2017-07-22T06:23:20.934Z,90.1
2017-07-22T06:24:31.221Z,90.1
2017-07-22T06:25:41.492Z,89.34
2017-07-22T06:26:51.765Z,89.24
2017-07-22T06:28:02.046Z,89.53
2017-07-22T06:29:12.010Z,88.86
2017-07-22T06:30:22.280Z,89.34
2017-07-22T06:31:32.566Z,89.15
2017-07-22T06:32:42.835Z,88.38
2017-07-22T06:33:52.798Z,88.38
2017-07-22T06:35:02.447Z,87.9
2017-07-22T06:36:12.754Z,88.38
2017-07-22T06:37:22.704Z,88.38
2017-07-22T06:38:32.988Z,88.33
2017-07-22T06:39:42.946Z,87.71
2017-07-22T06:40:53.220Z,88.04
2017-07-22T06:42:03.174Z,88.33
2017-07-22T06:43:12.824Z,88.04
2017-07-22T06:44:23.100Z,88.43
2017-07-22T06:45:33.371Z,88.62
2017-07-22T06:46:43.329Z,88.62
2017-07-22T06:47:53.600Z,87.56
2017-07-22T06:49:03.870Z,88.23
2017-07-22T06:50:14.140Z,88.13
2017-07-22T06:51:24.413Z,87.47
2017-07-22T06:52:34.685Z,87.51
2017-07-22T06:53:44.656Z,87.23
2017-07-22T06:54:54.932Z,87.61
2017-07-22T06:56:05.203Z,86.84
2017-07-22T06:57:15.477Z,87.13
2017-07-22T06:58:25.752Z,86.94
2017-07-22T06:59:36.026Z,86.84
2017-07-22T07:00:46.297Z,86.94
2017-07-22T07:01:56.569Z,87.03
2017-07-22T07:03:06.527Z,86.74
2017-07-22T07:04:16.483Z,86.65
2017-07-22T07:05:26.752Z,86.17
2017-07-22T07:06:36.709Z,86.27
2017-07-22T07:07:46.985Z,86.27
2017-07-22T07:08:57.267Z,86.41
2017-07-22T07:10:07.224Z,86.74
2017-07-22T07:11:17.505Z,86.41
2017-07-22T07:12:27.784Z,86.65
2017-07-22T07:13:37.116Z,86.55
2017-07-22T07:14:47.394Z,85.83
2017-07-22T07:15:57.665Z,85.64
2017-07-22T07:17:07.624Z,85.93
2017-07-22T07:18:17.897Z,85.25
2017-07-22T07:19:28.175Z,85.45
2017-07-22T07:20:38.449Z,84.88
2017-07-22T07:21:48.722Z,85.06
2017-07-22T07:22:58.994Z,84.68
2017-07-22T07:24:09.264Z,84.58
2017-07-22T07:25:19.531Z,84.58
2017-07-22T07:26:29.489Z,83.86
2017-07-22T07:27:39.454Z,83.95
2017-07-22T07:28:49.096Z,83.95
2017-07-22T07:29:59.055Z,83.67
2017-07-22T07:31:09.356Z,84.53
2017-07-22T07:32:19.316Z,84.44
2017-07-22T07:33:29.278Z,83.86
2017-07-22T07:34:39.254Z,83.42
2017-07-22T07:35:49.212Z,83.38
2017-07-22T07:36:59.489Z,82.85
2017-07-22T07:38:09.132Z,82.94
2017-07-22T07:39:19.404Z,82.46
2017-07-22T07:40:29.678Z,82.08
2017-07-22T07:41:39.957Z,82.85
2017-07-22T07:42:50.226Z,82.65
2017-07-22T07:44:00.494Z,82.37
2017-07-22T07:45:10.456Z,82.21
2017-07-22T07:46:20.728Z,81.07
2017-07-22T07:47:30.688Z,81.35
2017-07-22T07:48:40.960Z,81.07
2017-07-22T07:49:51.232Z,81.07
2017-07-22T07:51:01.191Z,82.41
2017-07-22T07:52:10.835Z,82.21
2017-07-22T07:53:21.109Z,81.07
2017-07-22T07:54:31.068Z,81.74
2017-07-22T07:55:41.339Z,80.78
2017-07-22T07:56:51.618Z,80.3
2017-07-22T07:58:01.892Z,80.15
2017-07-22T07:59:12.178Z,79.67
2017-07-22T08:00:22.146Z,80.24
2017-07-22T08:01:32.419Z,80.24
2017-07-22T08:02:42.695Z,80.82
2017-07-22T08:03:52.965Z,79.67
2017-07-22T08:05:02.922Z,79.47
2017-07-22T08:06:13.196Z,80.43
2017-07-22T08:07:23.466Z,80.34
2017-07-22T08:08:33.749Z,79.67
2017-07-22T08:09:44.021Z,79.8
2017-07-22T08:10:54.293Z,79.52
2017-07-22T08:12:04.252Z,79.03
2017-07-22T08:13:14.527Z,78.65
2017-07-22T08:14:24.809Z,79.22
2017-07-22T08:15:34.775Z,78.65
2017-07-22T08:16:45.053Z,78.84
2017-07-22T08:17:55.329Z,78.3
2017-07-22T08:19:05.606Z,78.5
2017-07-22T08:20:15.876Z,78.59
2017-07-22T08:21:26.147Z,78.78
2017-07-22T08:22:36.122Z,78.21
2017-07-22T08:23:45.782Z,77.34
2017-07-22T08:24:56.121Z,77.25
2017-07-22T08:26:06.397Z,78.11
2017-07-22T08:27:16.676Z,78.5
2017-07-22T08:28:26.949Z,78.11
2017-07-22T08:29:37.232Z,78.83
2017-07-22T08:30:47.200Z,77.38
2017-07-22T08:31:57.160Z,76.71
2017-07-22T08:33:07.428Z,77
2017-07-22T08:34:17.399Z,76.61
2017-07-22T08:35:27.677Z,76.14
2017-07-22T08:36:37.958Z,76.42
2017-07-22T08:37:48.228Z,75.75
2017-07-22T08:38:58.505Z,75.75
2017-07-22T08:40:08.469Z,74.4
2017-07-22T08:41:18.428Z,74.3
2017-07-22T08:42:28.695Z,75.75
2017-07-22T08:43:38.969Z,75.17
2017-07-22T08:44:48.925Z,73.83
2017-07-22T08:45:58.887Z,74.11
2017-07-22T08:47:09.177Z,74.25
2017-07-22T08:48:19.456Z,73.92
2017-07-22T08:49:29.101Z,73.28
2017-07-22T08:50:39.381Z,73.28
2017-07-22T08:51:49.656Z,73.47
2017-07-22T08:52:59.954Z,73.19
2017-07-22T08:54:10.228Z,72.8
2017-07-22T08:55:20.506Z,74.76
2017-07-22T08:56:30.782Z,73.9
2017-07-22T08:57:41.056Z,73.51
2017-07-22T08:58:51.331Z,71.88
2017-07-22T09:00:01.625Z,71.4
2017-07-22T09:01:11.277Z,71.01
2017-07-22T09:02:21.237Z,71.11
2017-07-22T09:03:31.200Z,70.24
2017-07-22T09:04:41.484Z,70.24
2017-07-22T09:05:51.765Z,70.05
2017-07-22T09:07:02.036Z,70.05
2017-07-22T09:08:11.369Z,70.15
2017-07-22T09:09:21.644Z,69.95
2017-07-22T09:10:31.919Z,68.6
2017-07-22T09:11:42.195Z,69.28
2017-07-22T09:12:52.475Z,69.38
2017-07-22T09:14:03.056Z,69.57
2017-07-22T09:15:13.339Z,69.09
2017-07-22T09:16:23.642Z,69.67
2017-07-22T09:17:33.922Z,69.47
2017-07-22T09:18:43.882Z,69.6
2017-07-22T09:19:54.167Z,68.84
2017-07-22T09:21:04.456Z,67.77
2017-07-22T09:22:14.739Z,67.87
2017-07-22T09:23:25.014Z,66.91
2017-07-22T09:24:34.982Z,67.19
2017-07-22T09:25:44.940Z,66.52
2017-07-22T09:26:55.221Z,67.1
2017-07-22T09:28:05.570Z,66.91
2017-07-22T09:29:15.851Z,66.81
2017-07-22T09:30:26.128Z,65.85
2017-07-22T09:31:36.402Z,65.85
2017-07-22T09:32:46.679Z,67.68
2017-07-22T09:33:56.637Z,67.58
2017-07-22T09:35:06.621Z,67.39
2017-07-22T09:36:16.583Z,65.94
2017-07-22T09:37:26.544Z,67.39
2017-07-22T09:38:36.508Z,65.88
2017-07-22T09:39:46.781Z,66.55
2017-07-22T09:40:57.056Z,66.62
2017-07-22T09:42:07.334Z,64.31
2017-07-22T09:43:17.757Z,64.59
2017-07-22T09:44:28.031Z,62.6
2017-07-22T09:45:38.309Z,63.73
2017-07-22T09:46:48.585Z,64.43
2017-07-22T09:47:58.861Z,65.2
2017-07-22T09:49:08.816Z,65.4
2017-07-22T09:50:19.093Z,64.43
2017-07-22T09:51:29.059Z,64.92
2017-07-22T09:52:39.018Z,62.41
2017-07-22T09:53:49.295Z,63.02
2017-07-22T09:54:59.254Z,63.5
2017-07-22T09:56:09.226Z,62.63
2017-07-22T09:57:19.189Z,62.93
2017-07-22T09:58:29.464Z,63.41
2017-07-22T09:59:39.743Z,63.12
2017-07-22T10:00:49.706Z,62.83
2017-07-22T10:01:59.979Z,62.45
2017-07-22T10:03:10.255Z,61.96
2017-07-22T10:04:20.223Z,62.28
2017-07-22T10:05:30.495Z,59.97
2017-07-22T10:06:40.770Z,62.48
2017-07-22T10:07:51.047Z,60.93
2017-07-22T10:09:01.325Z,62.57
2017-07-22T10:10:11.296Z,61.22
2017-07-22T10:11:21.570Z,61.51
2017-07-22T10:12:31.855Z,61.03
2017-07-22T10:13:42.129Z,59.1
2017-07-22T10:14:52.407Z,56.69
2017-07-22T10:16:02.368Z,57.37
2017-07-22T10:17:11.698Z,57.56
2017-07-22T10:18:21.979Z,59.1
2017-07-22T10:19:32.250Z,58.91
2017-07-22T10:20:42.533Z,58.4
2017-07-22T10:21:52.494Z,58.97
2017-07-22T10:23:02.766Z,60.9
2017-07-22T10:24:13.041Z,60.61
2017-07-22T10:25:23.007Z,60.32
2017-07-22T10:26:33.285Z,60.03
2017-07-22T10:27:43.575Z,59.55
2017-07-22T10:28:53.860Z,61.03
2017-07-22T10:30:06.137Z,59.87
2017-07-22T10:31:16.418Z,59.58
2017-07-22T10:32:26.688Z,62.18
2017-07-22T10:33:36.652Z,57.97
2017-07-22T10:34:46.967Z,58.55
2017-07-22T10:35:57.243Z,56.81
2017-07-22T10:37:06.895Z,56.65
2017-07-22T10:38:17.168Z,55.01
2017-07-22T10:39:27.445Z,55.2
2017-07-22T10:40:37.492Z,54.82
2017-07-22T10:41:47.873Z,54.14
2017-07-22T10:42:58.163Z,53.37
2017-07-22T10:44:07.811Z,53.66
2017-07-22T10:45:17.774Z,54.17
2017-07-22T10:46:27.740Z,52.62
2017-07-22T10:47:37.702Z,53.01
2017-07-22T10:48:47.664Z,53.69
2017-07-22T10:49:57.948Z,55.81
2017-07-22T10:51:08.226Z,55.23
2017-07-22T10:52:18.505Z,51.95
2017-07-22T10:53:28.781Z,53.49
2017-07-22T10:54:38.749Z,55.07
2017-07-22T10:55:49.028Z,54
2017-07-22T10:56:59.306Z,52.07
2017-07-22T10:58:09.584Z,52.94
2017-07-22T10:59:19.864Z,52.65
2017-07-22T11:00:30.138Z,51.68
2017-07-22T11:01:40.419Z,52.36
2017-07-22T11:02:50.695Z,51.97
2017-07-22T11:04:00.968Z,53.03
2017-07-22T11:05:11.244Z,52.84
2017-07-22T11:06:21.221Z,52.62
2017-07-22T11:07:31.493Z,53.49
2017-07-22T11:08:41.780Z,53.17
2017-07-22T11:09:51.746Z,54.33
2017-07-22T11:11:02.024Z,53.17
2017-07-22T11:12:12.301Z,55.4
2017-07-22T11:13:22.586Z,54.82
2017-07-22T11:14:32.862Z,54.62
2017-07-22T11:15:43.139Z,53.95
2017-07-22T11:16:53.416Z,54.05
2017-07-22T11:18:03.696Z,54.05
2017-07-22T11:19:13.973Z,54.43
2017-07-22T11:20:24.252Z,54.72
2017-07-22T11:21:34.213Z,54.72
2017-07-22T11:22:43.861Z,56.16
2017-07-22T11:23:54.138Z,52.81
2017-07-22T11:25:04.421Z,51.46
2017-07-22T11:26:14.408Z,53.01
2017-07-22T11:27:24.684Z,53.01
2017-07-22T11:28:34.958Z,53.97
2017-07-22T11:29:45.237Z,51.46
2017-07-22T11:30:55.221Z,51.46
2017-07-22T11:32:05.185Z,51.95
2017-07-22T11:33:15.474Z,52.33
2017-07-22T11:34:25.763Z,51.1
2017-07-22T11:35:36.036Z,50.81
2017-07-22T11:36:46.319Z,50.13
2017-07-22T11:37:56.280Z,50.69
2017-07-22T11:39:06.560Z,51.27
2017-07-22T11:40:16.834Z,51.07
2017-07-22T11:41:27.110Z,51.95
2017-07-22T11:42:37.076Z,50.31
2017-07-22T11:43:47.036Z,50.4
2017-07-22T11:44:57.313Z,50.09
2017-07-22T11:46:07.601Z,50.28
2017-07-22T11:47:17.881Z,50.31
2017-07-22T11:48:28.156Z,49.63
2017-07-22T11:49:38.435Z,50.79
2017-07-22T11:50:48.718Z,49.92
2017-07-22T11:51:58.993Z,49.92
2017-07-22T11:53:09.269Z,49.12
2017-07-22T11:54:19.545Z,48.93
2017-07-22T11:55:29.820Z,50.96
2017-07-22T11:56:40.099Z,50.11
2017-07-22T11:57:50.379Z,47.55
2017-07-22T11:59:00.661Z,48.71
2017-07-22T12:00:10.937Z,48.49
2017-07-22T12:01:21.212Z,48.21
2017-07-22T12:02:31.491Z,47.14
2017-07-22T12:03:43.776Z,48.42
2017-07-22T12:04:54.051Z,44.81
2017-07-22T12:06:04.333Z,44.26
2017-07-22T12:07:13.978Z,44.16
2017-07-22T12:08:23.938Z,43.58
2017-07-22T12:09:33.900Z,44.45
2017-07-22T12:10:43.990Z,44.62
2017-07-22T12:11:54.270Z,45.76
2017-07-22T12:13:04.549Z,45.28
2017-07-22T12:14:14.518Z,43.58
2017-07-22T12:15:24.793Z,43.96
2017-07-22T12:16:34.757Z,44.84
2017-07-22T12:17:45.038Z,43.58
2017-07-22T12:18:55.003Z,43.09
2017-07-22T12:20:04.975Z,43.48
2017-07-22T12:21:14.937Z,43.96
2017-07-22T12:22:24.902Z,43
2017-07-22T12:23:35.182Z,43.87
2017-07-22T12:24:45.462Z,42.9
2017-07-22T12:25:55.741Z,43.89
2017-07-22T12:27:06.020Z,42.54
2017-07-22T12:28:15.677Z,41.02
2017-07-22T12:29:25.957Z,39.11
2017-07-22T12:30:35.927Z,39.34
2017-07-22T12:31:46.205Z,39.04
2017-07-22T12:32:56.488Z,38.27
2017-07-22T12:34:06.780Z,39.22
2017-07-22T12:35:17.061Z,40.46
2017-07-22T12:36:27.340Z,39.69
2017-07-22T12:37:37.309Z,39.98
2017-07-22T12:38:47.282Z,40.25
2017-07-22T12:39:57.561Z,42.55
2017-07-22T12:41:07.844Z,43.21
2017-07-22T12:42:17.815Z,42.72
2017-07-22T12:43:28.108Z,44.64
2017-07-22T12:44:38.400Z,44.06
2017-07-22T12:45:48.676Z,44.35
2017-07-22T12:46:58.646Z,42.78
2017-07-22T12:48:08.606Z,43.37
2017-07-22T12:49:18.568Z,45.18
2017-07-22T12:50:28.846Z,44.31
2017-07-22T12:51:39.132Z,45.47
2017-07-22T12:52:49.095Z,43.63
2017-07-22T12:53:59.372Z,44.79
2017-07-22T12:55:09.338Z,45.45
2017-07-22T12:56:19.621Z,47.09
2017-07-22T12:57:29.583Z,47
2017-07-22T12:58:39.858Z,48.16
2017-07-22T12:59:49.845Z,46.12
2017-07-22T13:01:00.123Z,47.58
2017-07-22T13:02:10.100Z,47.55
2017-07-22T13:03:20.382Z,47.94
2017-07-22T13:04:30.661Z,48.32
2017-07-22T13:05:40.633Z,47.67
2017-07-22T13:06:50.908Z,48.93
2017-07-22T13:08:01.185Z,48.44
2017-07-22T13:09:11.462Z,44.96
2017-07-22T13:10:21.436Z,45.83
2017-07-22T13:11:31.403Z,45.74
2017-07-22T13:12:41.681Z,45.66
2017-07-22T13:13:51.961Z,45.37
2017-07-22T13:15:02.239Z,45.42
2017-07-22T13:16:12.521Z,42.61
2017-07-22T13:17:22.799Z,41.78
2017-07-22T13:18:33.073Z,41.49
2017-07-22T13:19:43.349Z,41.39
2017-07-22T13:20:53.661Z,40.81
2017-07-22T13:22:03.936Z,42.63
2017-07-22T13:23:14.214Z,40.79
2017-07-22T13:24:24.497Z,41.47
2017-07-22T13:25:34.781Z,42.54
2017-07-22T13:26:45.071Z,41.64
2017-07-22T13:27:55.356Z,41.56
2017-07-22T13:29:05.648Z,41.49
2017-07-22T13:30:15.615Z,40.15
2017-07-22T13:31:25.580Z,39.2
2017-07-22T13:32:35.861Z,38.83
2017-07-22T13:33:46.154Z,37.78
2017-07-22T13:34:56.429Z,37.59
2017-07-22T13:36:06.714Z,37.7
2017-07-22T13:37:17.011Z,37.43
2017-07-22T13:38:26.981Z,38.11
2017-07-22T13:39:37.271Z,38.13
2017-07-22T13:40:47.261Z,38.56
2017-07-22T13:41:57.543Z,35.26
2017-07-22T13:43:07.823Z,34.97
2017-07-22T13:44:18.108Z,34.29
2017-07-22T13:45:28.393Z,34.29
2017-07-22T13:46:38.362Z,34.68
2017-07-22T13:47:48.349Z,34.39
2017-07-22T13:48:58.322Z,33.72
2017-07-22T13:50:08.317Z,34.59
2017-07-22T13:51:18.295Z,33.34
2017-07-22T13:52:28.595Z,33.56
2017-07-22T13:53:38.876Z,33.67
2017-07-22T13:54:49.181Z,32.52
2017-07-22T13:55:59.468Z,31.07
2017-07-22T13:57:09.150Z,32.82
2017-07-22T13:58:19.438Z,33.2
2017-07-22T13:59:29.721Z,31.38
2017-07-22T14:00:40.006Z,31.38
2017-07-22T14:01:50.292Z,31.07
2017-07-22T14:03:00.577Z,30.19
2017-07-22T14:04:10.558Z,31.64
2017-07-22T14:05:20.844Z,30.19
2017-07-22T14:06:31.136Z,29.81
2017-07-22T14:07:41.420Z,29.5
2017-07-22T14:08:51.708Z,30.08
2017-07-22T14:10:02.007Z,30.09
2017-07-22T14:11:11.979Z,29.81
2017-07-22T14:12:22.268Z,29.53
2017-07-22T14:13:32.557Z,30.12
2017-07-22T14:14:42.865Z,29.93
2017-07-22T14:15:53.152Z,29.24
2017-07-22T14:17:03.436Z,30
2017-07-22T14:18:13.724Z,29.63
2017-07-22T14:19:24.019Z,29.71
2017-07-22T14:20:34.306Z,28.55
2017-07-22T14:21:44.282Z,29.06
2017-07-22T14:22:54.573Z,27.11
2017-07-22T14:24:04.870Z,28.19
2017-07-22T14:25:15.161Z,28.09
2017-07-22T14:26:25.134Z,28.78
2017-07-22T14:27:35.432Z,28.97
2017-07-22T14:28:45.721Z,28.5
2017-07-22T14:29:55.695Z,28.53
2017-07-22T14:31:05.987Z,27.85
2017-07-22T14:32:16.271Z,28.06
2017-07-22T14:33:26.246Z,24.93
2017-07-22T14:34:36.530Z,25.52
2017-07-22T14:35:46.819Z,26.8
2017-07-22T14:36:57.108Z,26.11
2017-07-22T14:38:07.402Z,25.71
2017-07-22T14:39:17.685Z,25.62
2017-07-22T14:40:27.966Z,25.13
2017-07-22T14:41:37.943Z,24.85
2017-07-22T14:42:47.918Z,25.33
2017-07-22T14:43:58.209Z,26.2
2017-07-22T14:45:07.562Z,25.9
2017-07-22T14:46:17.846Z,26.48
2017-07-22T14:47:27.821Z,25.89
2017-07-22T14:48:37.482Z,26
2017-07-22T14:49:47.776Z,25.31
2017-07-22T14:50:57.748Z,26.89
2017-07-22T14:52:08.034Z,25.51
2017-07-22T14:53:20.323Z,25.33
2017-07-22T14:54:30.617Z,24.76
2017-07-22T14:55:40.597Z,24.57
2017-07-22T14:56:50.889Z,24.08
2017-07-22T14:58:00.869Z,24.4
2017-07-22T14:59:10.534Z,23.21
2017-07-22T15:00:20.829Z,23.51
2017-07-22T15:01:31.128Z,24.1
2017-07-22T15:02:41.421Z,23.71
2017-07-22T15:03:51.404Z,24.69
2017-07-22T15:05:01.702Z,22.72
2017-07-22T15:06:11.995Z,22.93
2017-07-22T15:07:21.976Z,23.3